sensor_id;sensor_type;location;lat;lon;timestamp;P1;durP1;ratioP1;P2;durP2;ratioP2
16824;SDS011;8529;48.108;-1.706;2022-10-03T00:00:00;7.65;;;2.67;;
16824;SDS011;8529;48.108;-1.706;2022-10-03T00:02:38;9.57;;;3.28;;
16824;SDS011;8529;48.108;-1.706;2022-10-03T00:05:23;7.45;;;2.60;;
16824;SDS011;8529;48.108;-1.706;2022-10-03T00:08:06;4.50;;;2.05;;
16824;SDS011;8529;48.108;-1.706;2022-10-03T00:10:47;8.98;;;2.78;;
16824;SDS011;8529;48.108;-1.706;2022-10-03T00:13:23;11.52;;;2.72;;
16824;SDS011;8529;48.108;-1.706;2022-10-03T00:16:01;8.15;;;2.55;;
16824;SDS011;8529;48.108;-1.706;2022-10-03T00:18:39;10.93;;;3.10;;
16824;SDS011;8529;48.108;-1.706;2022-10-03T00:21:19;8.52;;;2.45;;
16824;SDS011;8529;48.108;-1.706;2022-10-03T00:23:56;8.65;;;2.53;;
16824;SDS011;8529;48.108;-1.706;2022-10-03T00:26:36;8.60;;;2.55;;
16824;SDS011;8529;48.108;-1.706;2022-10-03T00:29:21;5.78;;;2.45;;
16824;SDS011;8529;48.108;-1.706;2022-10-03T00:32:04;7.45;;;2.60;;
16824;SDS011;8529;48.108;-1.706;2022-10-03T00:34:47;4.85;;;2.85;;
16824;SDS011;8529;48.108;-1.706;2022-10-03T00:37:29;9.73;;;3.00;;
16824;SDS011;8529;48.108;-1.706;2022-10-03T00:40:14;10.98;;;2.97;;
16824;SDS011;8529;48.108;-1.706;2022-10-03T00:43:21;5.47;;;2.60;;
16824;SDS011;8529;48.108;-1.706;2022-10-03T00:46:36;7.72;;;3.08;;
16824;SDS011;8529;48.108;-1.706;2022-10-03T00:55:32;9.10;;;2.45;;
16824;SDS011;8529;48.108;-1.706;2022-10-03T00:58:20;10.75;;;2.92;;
16824;SDS011;8529;48.108;-1.706;2022-10-03T01:01:21;15.80;;;2.95;;
16824;SDS011;8529;48.108;-1.706;2022-10-03T01:03:54;7.60;;;2.38;;
16824;SDS011;8529;48.108;-1.706;2022-10-03T01:06:33;6.22;;;2.42;;
16824;SDS011;8529;48.108;-1.706;2022-10-03T01:09:19;10.00;;;2.88;;
16824;SDS011;8529;48.108;-1.706;2022-10-03T01:11:56;8.75;;;2.92;;
16824;SDS011;8529;48.108;-1.706;2022-10-03T01:14:39;6.68;;;2.67;;
16824;SDS011;8529;48.108;-1.706;2022-10-03T01:17:22;10.18;;;3.00;;
16824;SDS011;8529;48.108;-1.706;2022-10-03T01:20:02;12.73;;;2.95;;
16824;SDS011;8529;48.108;-1.706;2022-10-03T01:22:52;7.15;;;2.42;;
16824;SDS011;8529;48.108;-1.706;2022-10-03T01:25:38;7.68;;;2.20;;
16824;SDS011;8529;48.108;-1.706;2022-10-03T01:28:23;6.55;;;2.97;;
16824;SDS011;8529;48.108;-1.706;2022-10-03T01:31:22;10.13;;;2.70;;
16824;SDS011;8529;48.108;-1.706;2022-10-03T01:33:54;7.63;;;2.88;;
16824;SDS011;8529;48.108;-1.706;2022-10-03T01:36:31;9.13;;;3.08;;
16824;SDS011;8529;48.108;-1.706;2022-10-03T01:39:06;8.27;;;3.20;;
16824;SDS011;8529;48.108;-1.706;2022-10-03T01:41:42;9.32;;;2.58;;
16824;SDS011;8529;48.108;-1.706;2022-10-03T01:44:17;7.55;;;3.22;;
16824;SDS011;8529;48.108;-1.706;2022-10-03T01:46:49;5.90;;;2.65;;
16824;SDS011;8529;48.108;-1.706;2022-10-03T01:49:24;4.47;;;2.38;;
16824;SDS011;8529;48.108;-1.706;2022-10-03T01:51:59;9.45;;;3.00;;
16824;SDS011;8529;48.108;-1.706;2022-10-03T01:54:33;15.27;;;4.22;;
16824;SDS011;8529;48.108;-1.706;2022-10-03T01:57:09;6.55;;;3.08;;
16824;SDS011;8529;48.108;-1.706;2022-10-03T01:59:47;9.98;;;3.90;;
16824;SDS011;8529;48.108;-1.706;2022-10-03T02:02:27;9.90;;;4.93;;
16824;SDS011;8529;48.108;-1.706;2022-10-03T02:05:02;9.80;;;4.45;;
16824;SDS011;8529;48.108;-1.706;2022-10-03T02:07:39;8.75;;;4.35;;
16824;SDS011;8529;48.108;-1.706;2022-10-03T02:10:12;12.27;;;4.55;;
16824;SDS011;8529;48.108;-1.706;2022-10-03T02:12:50;10.60;;;4.32;;
16824;SDS011;8529;48.108;-1.706;2022-10-03T02:15:27;8.90;;;4.43;;
16824;SDS011;8529;48.108;-1.706;2022-10-03T02:18:01;8.65;;;4.82;;
16824;SDS011;8529;48.108;-1.706;2022-10-03T02:20:40;10.00;;;4.63;;
16824;SDS011;8529;48.108;-1.706;2022-10-03T02:23:20;8.77;;;4.90;;
16824;SDS011;8529;48.108;-1.706;2022-10-03T02:25:52;8.95;;;5.05;;
16824;SDS011;8529;48.108;-1.706;2022-10-03T02:28:34;9.55;;;5.18;;
16824;SDS011;8529;48.108;-1.706;2022-10-03T02:31:26;7.72;;;4.40;;
16824;SDS011;8529;48.108;-1.706;2022-10-03T02:34:15;8.52;;;5.07;;
16824;SDS011;8529;48.108;-1.706;2022-10-03T02:36:58;14.68;;;5.80;;
16824;SDS011;8529;48.108;-1.706;2022-10-03T02:40:07;10.40;;;4.47;;
16824;SDS011;8529;48.108;-1.706;2022-10-03T02:46:21;9.13;;;4.63;;
16824;SDS011;8529;48.108;-1.706;2022-10-03T02:49:21;9.27;;;4.63;;
16824;SDS011;8529;48.108;-1.706;2022-10-03T02:55:10;12.13;;;4.72;;
16824;SDS011;8529;48.108;-1.706;2022-10-03T03:01:12;8.50;;;4.30;;
16824;SDS011;8529;48.108;-1.706;2022-10-03T03:07:17;11.48;;;4.40;;
16824;SDS011;8529;48.108;-1.706;2022-10-03T03:16:10;9.25;;;4.78;;
16824;SDS011;8529;48.108;-1.706;2022-10-03T03:18:53;7.55;;;3.95;;
16824;SDS011;8529;48.108;-1.706;2022-10-03T03:21:37;6.60;;;3.95;;
16824;SDS011;8529;48.108;-1.706;2022-10-03T03:24:19;9.52;;;4.60;;
16824;SDS011;8529;48.108;-1.706;2022-10-03T03:29:50;7.95;;;4.80;;
16824;SDS011;8529;48.108;-1.706;2022-10-03T03:32:30;9.52;;;5.63;;
16824;SDS011;8529;48.108;-1.706;2022-10-03T03:35:14;8.00;;;4.82;;
16824;SDS011;8529;48.108;-1.706;2022-10-03T03:37:50;8.02;;;5.70;;
16824;SDS011;8529;48.108;-1.706;2022-10-03T03:40:30;13.43;;;6.97;;
16824;SDS011;8529;48.108;-1.706;2022-10-03T03:43:15;13.13;;;6.53;;
16824;SDS011;8529;48.108;-1.706;2022-10-03T03:46:03;10.07;;;5.90;;
16824;SDS011;8529;48.108;-1.706;2022-10-03T03:48:46;15.48;;;6.25;;
16824;SDS011;8529;48.108;-1.706;2022-10-03T03:51:28;13.05;;;6.22;;
16824;SDS011;8529;48.108;-1.706;2022-10-03T03:57:15;11.52;;;6.25;;
16824;SDS011;8529;48.108;-1.706;2022-10-03T03:59:58;12.30;;;6.55;;
16824;SDS011;8529;48.108;-1.706;2022-10-03T04:02:35;13.73;;;6.65;;
16824;SDS011;8529;48.108;-1.706;2022-10-03T04:05:13;11.23;;;6.53;;
16824;SDS011;8529;48.108;-1.706;2022-10-03T04:07:56;9.23;;;5.60;;
16824;SDS011;8529;48.108;-1.706;2022-10-03T04:10:46;11.38;;;6.13;;
16824;SDS011;8529;48.108;-1.706;2022-10-03T04:13:27;10.57;;;5.80;;
16824;SDS011;8529;48.108;-1.706;2022-10-03T04:16:04;9.30;;;5.68;;
16824;SDS011;8529;48.108;-1.706;2022-10-03T04:19:04;9.70;;;5.25;;
16824;SDS011;8529;48.108;-1.706;2022-10-03T04:21:39;10.85;;;5.90;;
16824;SDS011;8529;48.108;-1.706;2022-10-03T04:27:37;7.20;;;5.03;;
16824;SDS011;8529;48.108;-1.706;2022-10-03T04:30:20;17.70;;;5.30;;
16824;SDS011;8529;48.108;-1.706;2022-10-03T04:33:06;9.50;;;5.97;;
16824;SDS011;8529;48.108;-1.706;2022-10-03T04:36:10;7.22;;;5.03;;
16824;SDS011;8529;48.108;-1.706;2022-10-03T04:38:52;8.57;;;5.80;;
16824;SDS011;8529;48.108;-1.706;2022-10-03T04:41:27;7.47;;;5.70;;
16824;SDS011;8529;48.108;-1.706;2022-10-03T04:44:07;8.82;;;5.32;;
16824;SDS011;8529;48.108;-1.706;2022-10-03T04:46:46;9.60;;;5.18;;
16824;SDS011;8529;48.108;-1.706;2022-10-03T04:49:28;6.75;;;4.70;;
16824;SDS011;8529;48.108;-1.706;2022-10-03T04:52:01;7.70;;;5.30;;
16824;SDS011;8529;48.108;-1.706;2022-10-03T04:54:39;7.50;;;4.40;;
16824;SDS011;8529;48.108;-1.706;2022-10-03T04:57:18;9.00;;;5.22;;
16824;SDS011;8529;48.108;-1.706;2022-10-03T04:59:54;7.10;;;3.95;;
16824;SDS011;8529;48.108;-1.706;2022-10-03T05:02:40;6.65;;;4.35;;
16824;SDS011;8529;48.108;-1.706;2022-10-03T05:05:24;5.80;;;3.67;;
16824;SDS011;8529;48.108;-1.706;2022-10-03T05:08:03;5.63;;;4.10;;
16824;SDS011;8529;48.108;-1.706;2022-10-03T05:10:49;6.30;;;4.53;;
16824;SDS011;8529;48.108;-1.706;2022-10-03T05:13:28;7.82;;;5.07;;
16824;SDS011;8529;48.108;-1.706;2022-10-03T05:16:06;10.30;;;7.18;;
16824;SDS011;8529;48.108;-1.706;2022-10-03T05:18:46;10.18;;;6.28;;
16824;SDS011;8529;48.108;-1.706;2022-10-03T05:21:21;11.18;;;7.32;;
16824;SDS011;8529;48.108;-1.706;2022-10-03T05:23:57;10.20;;;6.43;;
16824;SDS011;8529;48.108;-1.706;2022-10-03T05:26:34;9.32;;;6.47;;
16824;SDS011;8529;48.108;-1.706;2022-10-03T05:29:13;7.82;;;4.63;;
16824;SDS011;8529;48.108;-1.706;2022-10-03T05:31:47;8.27;;;4.75;;
16824;SDS011;8529;48.108;-1.706;2022-10-03T05:34:28;7.68;;;4.30;;
16824;SDS011;8529;48.108;-1.706;2022-10-03T05:37:19;8.27;;;4.47;;
16824;SDS011;8529;48.108;-1.706;2022-10-03T05:40:06;8.50;;;3.75;;
16824;SDS011;8529;48.108;-1.706;2022-10-03T05:42:49;9.23;;;4.40;;
16824;SDS011;8529;48.108;-1.706;2022-10-03T05:45:30;5.53;;;4.05;;
16824;SDS011;8529;48.108;-1.706;2022-10-03T05:48:17;5.72;;;3.65;;
16824;SDS011;8529;48.108;-1.706;2022-10-03T05:54:13;4.90;;;3.45;;
16824;SDS011;8529;48.108;-1.706;2022-10-03T05:57:01;5.90;;;3.17;;
16824;SDS011;8529;48.108;-1.706;2022-10-03T06:00:01;4.70;;;3.35;;
16824;SDS011;8529;48.108;-1.706;2022-10-03T06:02:37;6.47;;;3.50;;
16824;SDS011;8529;48.108;-1.706;2022-10-03T06:05:30;5.28;;;3.20;;
16824;SDS011;8529;48.108;-1.706;2022-10-03T06:08:14;5.95;;;3.38;;
16824;SDS011;8529;48.108;-1.706;2022-10-03T06:11:01;6.55;;;3.40;;
16824;SDS011;8529;48.108;-1.706;2022-10-03T06:13:44;4.25;;;2.80;;
16824;SDS011;8529;48.108;-1.706;2022-10-03T06:16:25;3.97;;;3.50;;
16824;SDS011;8529;48.108;-1.706;2022-10-03T06:19:04;13.85;;;4.03;;
16824;SDS011;8529;48.108;-1.706;2022-10-03T06:31:12;7.57;;;4.20;;
16824;SDS011;8529;48.108;-1.706;2022-10-03T06:37:32;5.70;;;4.00;;
16824;SDS011;8529;48.108;-1.706;2022-10-03T06:43:32;6.78;;;4.18;;
16824;SDS011;8529;48.108;-1.706;2022-10-03T06:46:38;9.73;;;4.65;;
16824;SDS011;8529;48.108;-1.706;2022-10-03T06:52:17;7.35;;;4.32;;
16824;SDS011;8529;48.108;-1.706;2022-10-03T06:55:20;5.60;;;4.13;;
16824;SDS011;8529;48.108;-1.706;2022-10-03T07:01:42;4.88;;;3.97;;
16824;SDS011;8529;48.108;-1.706;2022-10-03T07:04:26;5.30;;;4.28;;
16824;SDS011;8529;48.108;-1.706;2022-10-03T07:10:20;5.90;;;4.60;;
16824;SDS011;8529;48.108;-1.706;2022-10-03T07:13:07;5.97;;;4.25;;
16824;SDS011;8529;48.108;-1.706;2022-10-03T07:25:12;11.23;;;4.65;;
16824;SDS011;8529;48.108;-1.706;2022-10-03T07:30:59;8.25;;;4.65;;
16824;SDS011;8529;48.108;-1.706;2022-10-03T07:33:57;7.30;;;4.25;;
16824;SDS011;8529;48.108;-1.706;2022-10-03T07:36:54;8.00;;;4.85;;
16824;SDS011;8529;48.108;-1.706;2022-10-03T07:43:12;8.18;;;4.65;;
16824;SDS011;8529;48.108;-1.706;2022-10-03T07:46:11;7.72;;;4.88;;
16824;SDS011;8529;48.108;-1.706;2022-10-03T07:52:06;7.72;;;4.78;;
16824;SDS011;8529;48.108;-1.706;2022-10-03T07:54:54;7.53;;;4.95;;
16824;SDS011;8529;48.108;-1.706;2022-10-03T07:57:50;8.68;;;5.78;;
16824;SDS011;8529;48.108;-1.706;2022-10-03T08:00:41;5.88;;;4.07;;
16824;SDS011;8529;48.108;-1.706;2022-10-03T08:03:28;8.77;;;5.20;;
16824;SDS011;8529;48.108;-1.706;2022-10-03T08:06:17;10.18;;;5.43;;
16824;SDS011;8529;48.108;-1.706;2022-10-03T08:08:56;8.25;;;5.05;;
16824;SDS011;8529;48.108;-1.706;2022-10-03T08:11:52;9.55;;;4.75;;
16824;SDS011;8529;48.108;-1.706;2022-10-03T08:14:46;5.97;;;4.28;;
16824;SDS011;8529;48.108;-1.706;2022-10-03T08:17:37;7.25;;;4.10;;
16824;SDS011;8529;48.108;-1.706;2022-10-03T08:20:41;7.60;;;4.47;;
16824;SDS011;8529;48.108;-1.706;2022-10-03T08:26:40;5.20;;;3.75;;
16824;SDS011;8529;48.108;-1.706;2022-10-03T08:29:22;7.32;;;4.20;;
16824;SDS011;8529;48.108;-1.706;2022-10-03T08:38:44;7.55;;;5.00;;
16824;SDS011;8529;48.108;-1.706;2022-10-03T08:44:36;7.05;;;4.22;;
16824;SDS011;8529;48.108;-1.706;2022-10-03T08:50:46;6.05;;;4.18;;
16824;SDS011;8529;48.108;-1.706;2022-10-03T08:56:19;6.38;;;4.32;;
16824;SDS011;8529;48.108;-1.706;2022-10-03T08:59:12;6.88;;;4.28;;
16824;SDS011;8529;48.108;-1.706;2022-10-03T09:08:07;6.30;;;3.95;;
16824;SDS011;8529;48.108;-1.706;2022-10-03T09:11:04;7.50;;;4.63;;
16824;SDS011;8529;48.108;-1.706;2022-10-03T09:17:01;6.47;;;4.50;;
16824;SDS011;8529;48.108;-1.706;2022-10-03T09:19:51;7.35;;;4.80;;
16824;SDS011;8529;48.108;-1.706;2022-10-03T09:22:56;8.23;;;5.30;;
16824;SDS011;8529;48.108;-1.706;2022-10-03T09:25:46;8.45;;;4.88;;
16824;SDS011;8529;48.108;-1.706;2022-10-03T09:31:41;7.32;;;4.88;;
16824;SDS011;8529;48.108;-1.706;2022-10-03T09:34:39;7.40;;;5.18;;
16824;SDS011;8529;48.108;-1.706;2022-10-03T09:37:35;6.80;;;4.13;;
16824;SDS011;8529;48.108;-1.706;2022-10-03T09:40:22;7.32;;;5.22;;
16824;SDS011;8529;48.108;-1.706;2022-10-03T09:43:23;6.78;;;4.82;;
16824;SDS011;8529;48.108;-1.706;2022-10-03T09:46:23;7.88;;;4.97;;
16824;SDS011;8529;48.108;-1.706;2022-10-03T09:49:19;7.20;;;4.22;;
16824;SDS011;8529;48.108;-1.706;2022-10-03T09:52:21;6.65;;;4.45;;
16824;SDS011;8529;48.108;-1.706;2022-10-03T09:58:03;6.72;;;3.67;;
16824;SDS011;8529;48.108;-1.706;2022-10-03T10:00:48;5.15;;;3.45;;
16824;SDS011;8529;48.108;-1.706;2022-10-03T10:03:42;5.53;;;3.00;;
16824;SDS011;8529;48.108;-1.706;2022-10-03T10:06:55;6.15;;;4.13;;
16824;SDS011;8529;48.108;-1.706;2022-10-03T10:10:00;3.80;;;2.63;;
16824;SDS011;8529;48.108;-1.706;2022-10-03T10:16:19;5.10;;;3.40;;
16824;SDS011;8529;48.108;-1.706;2022-10-03T10:22:26;3.88;;;2.65;;
16824;SDS011;8529;48.108;-1.706;2022-10-03T10:28:42;3.50;;;2.63;;
16824;SDS011;8529;48.108;-1.706;2022-10-03T10:34:44;6.55;;;3.70;;
16824;SDS011;8529;48.108;-1.706;2022-10-03T10:40:41;6.25;;;3.88;;
16824;SDS011;8529;48.108;-1.706;2022-10-03T10:43:51;4.07;;;2.65;;
16824;SDS011;8529;48.108;-1.706;2022-10-03T10:46:42;5.00;;;3.58;;
16824;SDS011;8529;48.108;-1.706;2022-10-03T10:52:31;4.93;;;3.08;;
16824;SDS011;8529;48.108;-1.706;2022-10-03T10:55:38;4.78;;;2.80;;
16824;SDS011;8529;48.108;-1.706;2022-10-03T11:01:52;4.47;;;3.10;;
16824;SDS011;8529;48.108;-1.706;2022-10-03T11:08:21;5.32;;;3.13;;
16824;SDS011;8529;48.108;-1.706;2022-10-03T11:11:43;6.35;;;3.65;;
16824;SDS011;8529;48.108;-1.706;2022-10-03T11:27:20;4.47;;;3.08;;
16824;SDS011;8529;48.108;-1.706;2022-10-03T11:30:17;3.50;;;2.80;;
16824;SDS011;8529;48.108;-1.706;2022-10-03T11:36:15;4.07;;;3.00;;
16824;SDS011;8529;48.108;-1.706;2022-10-03T11:39:08;4.80;;;3.05;;
16824;SDS011;8529;48.108;-1.706;2022-10-03T11:41:45;4.75;;;3.15;;
16824;SDS011;8529;48.108;-1.706;2022-10-03T11:44:19;4.57;;;3.25;;
16824;SDS011;8529;48.108;-1.706;2022-10-03T11:46:55;4.55;;;2.90;;
16824;SDS011;8529;48.108;-1.706;2022-10-03T11:52:42;3.50;;;2.85;;
16824;SDS011;8529;48.108;-1.706;2022-10-03T11:55:23;4.07;;;2.40;;
16824;SDS011;8529;48.108;-1.706;2022-10-03T11:58:00;2.83;;;1.75;;
16824;SDS011;8529;48.108;-1.706;2022-10-03T12:00:38;3.00;;;1.80;;
16824;SDS011;8529;48.108;-1.706;2022-10-03T12:03:11;2.08;;;1.88;;
16824;SDS011;8529;48.108;-1.706;2022-10-03T12:05:53;2.60;;;2.00;;
16824;SDS011;8529;48.108;-1.706;2022-10-03T12:08:37;4.18;;;1.63;;
16824;SDS011;8529;48.108;-1.706;2022-10-03T12:11:23;2.40;;;1.45;;
16824;SDS011;8529;48.108;-1.706;2022-10-03T12:16:51;1.65;;;1.35;;
16824;SDS011;8529;48.108;-1.706;2022-10-03T12:19:26;1.58;;;1.27;;
16824;SDS011;8529;48.108;-1.706;2022-10-03T12:21:58;2.60;;;1.27;;
16824;SDS011;8529;48.108;-1.706;2022-10-03T12:24:35;1.42;;;1.02;;
16824;SDS011;8529;48.108;-1.706;2022-10-03T12:27:08;2.30;;;1.13;;
16824;SDS011;8529;48.108;-1.706;2022-10-03T12:29:44;1.52;;;1.10;;
16824;SDS011;8529;48.108;-1.706;2022-10-03T12:32:27;2.05;;;0.95;;
16824;SDS011;8529;48.108;-1.706;2022-10-03T12:35:03;2.35;;;1.50;;
16824;SDS011;8529;48.108;-1.706;2022-10-03T12:37:42;1.70;;;1.20;;
16824;SDS011;8529;48.108;-1.706;2022-10-03T12:40:16;1.70;;;1.55;;
16824;SDS011;8529;48.108;-1.706;2022-10-03T12:42:52;2.00;;;1.60;;
16824;SDS011;8529;48.108;-1.706;2022-10-03T12:45:35;2.97;;;1.52;;
16824;SDS011;8529;48.108;-1.706;2022-10-03T12:48:17;1.50;;;1.40;;
16824;SDS011;8529;48.108;-1.706;2022-10-03T12:51:01;1.35;;;1.00;;
16824;SDS011;8529;48.108;-1.706;2022-10-03T12:53:38;2.70;;;1.20;;
16824;SDS011;8529;48.108;-1.706;2022-10-03T12:56:15;3.25;;;1.55;;
16824;SDS011;8529;48.108;-1.706;2022-10-03T12:58:49;1.23;;;0.98;;
16824;SDS011;8529;48.108;-1.706;2022-10-03T13:01:34;1.40;;;1.00;;
16824;SDS011;8529;48.108;-1.706;2022-10-03T13:04:20;1.77;;;1.10;;
16824;SDS011;8529;48.108;-1.706;2022-10-03T13:07:04;2.03;;;1.13;;
16824;SDS011;8529;48.108;-1.706;2022-10-03T13:09:50;0.88;;;0.85;;
16824;SDS011;8529;48.108;-1.706;2022-10-03T13:12:28;1.27;;;0.80;;
16824;SDS011;8529;48.108;-1.706;2022-10-03T13:18:12;1.45;;;0.90;;
16824;SDS011;8529;48.108;-1.706;2022-10-03T13:20:57;1.15;;;0.82;;
16824;SDS011;8529;48.108;-1.706;2022-10-03T13:23:34;1.05;;;0.75;;
16824;SDS011;8529;48.108;-1.706;2022-10-03T13:26:10;0.95;;;0.75;;
16824;SDS011;8529;48.108;-1.706;2022-10-03T13:28:48;1.65;;;0.98;;
16824;SDS011;8529;48.108;-1.706;2022-10-03T13:31:23;2.95;;;0.95;;
16824;SDS011;8529;48.108;-1.706;2022-10-03T13:33:54;1.33;;;0.63;;
16824;SDS011;8529;48.108;-1.706;2022-10-03T13:36:29;0.95;;;0.70;;
16824;SDS011;8529;48.108;-1.706;2022-10-03T13:39:08;1.30;;;0.90;;
16824;SDS011;8529;48.108;-1.706;2022-10-03T13:41:50;1.05;;;0.80;;
16824;SDS011;8529;48.108;-1.706;2022-10-03T13:44:30;1.35;;;0.93;;
16824;SDS011;8529;48.108;-1.706;2022-10-03T13:47:04;2.13;;;1.02;;
16824;SDS011;8529;48.108;-1.706;2022-10-03T13:49:46;1.17;;;0.70;;
16824;SDS011;8529;48.108;-1.706;2022-10-03T13:52:21;1.48;;;0.85;;
16824;SDS011;8529;48.108;-1.706;2022-10-03T13:57:44;0.80;;;0.80;;
16824;SDS011;8529;48.108;-1.706;2022-10-03T14:00:19;1.30;;;0.60;;
16824;SDS011;8529;48.108;-1.706;2022-10-03T14:02:50;0.50;;;0.50;;
16824;SDS011;8529;48.108;-1.706;2022-10-03T14:08:28;5.00;;;0.77;;
16824;SDS011;8529;48.108;-1.706;2022-10-03T14:11:20;1.00;;;0.50;;
16824;SDS011;8529;48.108;-1.706;2022-10-03T14:14:14;2.22;;;0.80;;
16824;SDS011;8529;48.108;-1.706;2022-10-03T14:16:59;0.70;;;0.60;;
16824;SDS011;8529;48.108;-1.706;2022-10-03T14:19:35;2.15;;;1.05;;
16824;SDS011;8529;48.108;-1.706;2022-10-03T14:22:12;3.88;;;1.65;;
16824;SDS011;8529;48.108;-1.706;2022-10-03T14:25:01;1.10;;;0.70;;
16824;SDS011;8529;48.108;-1.706;2022-10-03T14:27:41;0.82;;;0.60;;
16824;SDS011;8529;48.108;-1.706;2022-10-03T14:30:15;0.68;;;0.60;;
16824;SDS011;8529;48.108;-1.706;2022-10-03T14:33:05;0.85;;;0.60;;
16824;SDS011;8529;48.108;-1.706;2022-10-03T14:35:44;2.17;;;0.70;;
16824;SDS011;8529;48.108;-1.706;2022-10-03T14:38:26;1.23;;;0.50;;
16824;SDS011;8529;48.108;-1.706;2022-10-03T14:41:24;0.40;;;0.40;;
16824;SDS011;8529;48.108;-1.706;2022-10-03T14:44:00;3.17;;;0.93;;
16824;SDS011;8529;48.108;-1.706;2022-10-03T14:46:32;1.30;;;0.47;;
16824;SDS011;8529;48.108;-1.706;2022-10-03T14:49:04;0.60;;;0.50;;
16824;SDS011;8529;48.108;-1.706;2022-10-03T14:51:35;1.00;;;0.60;;
16824;SDS011;8529;48.108;-1.706;2022-10-03T14:54:06;0.40;;;0.40;;
16824;SDS011;8529;48.108;-1.706;2022-10-03T14:56:47;0.93;;;0.40;;
16824;SDS011;8529;48.108;-1.706;2022-10-03T14:59:17;1.10;;;0.30;;
16824;SDS011;8529;48.108;-1.706;2022-10-03T15:01:47;1.17;;;0.60;;
16824;SDS011;8529;48.108;-1.706;2022-10-03T15:04:17;1.27;;;0.55;;
16824;SDS011;8529;48.108;-1.706;2022-10-03T15:06:52;1.25;;;0.52;;
16824;SDS011;8529;48.108;-1.706;2022-10-03T15:09:22;1.20;;;0.57;;
16824;SDS011;8529;48.108;-1.706;2022-10-03T15:11:53;0.77;;;0.30;;
16824;SDS011;8529;48.108;-1.706;2022-10-03T15:14:32;0.85;;;0.47;;
16824;SDS011;8529;48.108;-1.706;2022-10-03T15:17:03;0.50;;;0.45;;
16824;SDS011;8529;48.108;-1.706;2022-10-03T15:19:35;0.80;;;0.40;;
16824;SDS011;8529;48.108;-1.706;2022-10-03T15:22:11;0.57;;;0.50;;
16824;SDS011;8529;48.108;-1.706;2022-10-03T15:24:47;0.32;;;0.32;;
16824;SDS011;8529;48.108;-1.706;2022-10-03T15:27:19;0.75;;;0.47;;
16824;SDS011;8529;48.108;-1.706;2022-10-03T15:29:49;0.73;;;0.50;;
16824;SDS011;8529;48.108;-1.706;2022-10-03T15:32:20;0.70;;;0.40;;
16824;SDS011;8529;48.108;-1.706;2022-10-03T15:34:52;1.10;;;0.57;;
16824;SDS011;8529;48.108;-1.706;2022-10-03T15:37:24;0.60;;;0.60;;
16824;SDS011;8529;48.108;-1.706;2022-10-03T15:39:59;0.75;;;0.40;;
16824;SDS011;8529;48.108;-1.706;2022-10-03T15:42:36;1.10;;;0.70;;
16824;SDS011;8529;48.108;-1.706;2022-10-03T15:45:17;0.85;;;0.60;;
16824;SDS011;8529;48.108;-1.706;2022-10-03T15:47:49;0.60;;;0.55;;
16824;SDS011;8529;48.108;-1.706;2022-10-03T15:50:18;1.05;;;0.60;;
16824;SDS011;8529;48.108;-1.706;2022-10-03T15:52:49;0.70;;;0.50;;
16824;SDS011;8529;48.108;-1.706;2022-10-03T15:55:18;1.65;;;0.63;;
16824;SDS011;8529;48.108;-1.706;2022-10-03T15:57:52;1.35;;;0.80;;
16824;SDS011;8529;48.108;-1.706;2022-10-03T16:00:25;1.60;;;0.68;;
16824;SDS011;8529;48.108;-1.706;2022-10-03T16:02:56;1.38;;;0.85;;
16824;SDS011;8529;48.108;-1.706;2022-10-03T16:05:33;1.75;;;0.68;;
16824;SDS011;8529;48.108;-1.706;2022-10-03T16:08:03;1.10;;;0.60;;
16824;SDS011;8529;48.108;-1.706;2022-10-03T16:10:35;0.52;;;0.52;;
16824;SDS011;8529;48.108;-1.706;2022-10-03T16:13:08;1.05;;;0.65;;
16824;SDS011;8529;48.108;-1.706;2022-10-03T16:15:59;0.80;;;0.75;;
16824;SDS011;8529;48.108;-1.706;2022-10-03T16:21:43;1.23;;;0.60;;
16824;SDS011;8529;48.108;-1.706;2022-10-03T16:24:17;1.13;;;0.80;;
16824;SDS011;8529;48.108;-1.706;2022-10-03T16:26:51;1.27;;;0.82;;
16824;SDS011;8529;48.108;-1.706;2022-10-03T16:29:23;1.85;;;0.75;;
16824;SDS011;8529;48.108;-1.706;2022-10-03T16:31:53;1.10;;;0.75;;
16824;SDS011;8529;48.108;-1.706;2022-10-03T16:34:26;1.13;;;0.75;;
16824;SDS011;8529;48.108;-1.706;2022-10-03T16:36:55;0.70;;;0.70;;
16824;SDS011;8529;48.108;-1.706;2022-10-03T16:39:24;1.38;;;0.70;;
16824;SDS011;8529;48.108;-1.706;2022-10-03T16:41:55;1.63;;;0.70;;
16824;SDS011;8529;48.108;-1.706;2022-10-03T16:44:25;2.17;;;0.82;;
16824;SDS011;8529;48.108;-1.706;2022-10-03T16:47:04;0.68;;;0.52;;
16824;SDS011;8529;48.108;-1.706;2022-10-03T16:49:37;1.63;;;0.90;;
16824;SDS011;8529;48.108;-1.706;2022-10-03T16:52:28;1.23;;;0.57;;
16824;SDS011;8529;48.108;-1.706;2022-10-03T16:54:58;1.67;;;1.23;;
16824;SDS011;8529;48.108;-1.706;2022-10-03T16:57:28;0.70;;;0.70;;
16824;SDS011;8529;48.108;-1.706;2022-10-03T17:00:03;1.42;;;0.90;;
16824;SDS011;8529;48.108;-1.706;2022-10-03T17:02:32;1.77;;;0.80;;
16824;SDS011;8529;48.108;-1.706;2022-10-03T17:05:03;1.15;;;0.80;;
16824;SDS011;8529;48.108;-1.706;2022-10-03T17:07:37;1.08;;;0.82;;
16824;SDS011;8529;48.108;-1.706;2022-10-03T17:10:16;2.35;;;0.85;;
16824;SDS011;8529;48.108;-1.706;2022-10-03T17:12:52;1.45;;;0.73;;
16824;SDS011;8529;48.108;-1.706;2022-10-03T17:15:25;1.13;;;0.68;;
16824;SDS011;8529;48.108;-1.706;2022-10-03T17:17:55;0.85;;;0.85;;
16824;SDS011;8529;48.108;-1.706;2022-10-03T17:20:33;1.02;;;0.80;;
16824;SDS011;8529;48.108;-1.706;2022-10-03T17:23:08;0.82;;;0.55;;
16824;SDS011;8529;48.108;-1.706;2022-10-03T17:25:42;1.27;;;0.75;;
16824;SDS011;8529;48.108;-1.706;2022-10-03T17:28:24;0.85;;;0.75;;
16824;SDS011;8529;48.108;-1.706;2022-10-03T17:30:59;1.42;;;0.60;;
16824;SDS011;8529;48.108;-1.706;2022-10-03T17:33:31;1.10;;;0.80;;
16824;SDS011;8529;48.108;-1.706;2022-10-03T17:36:14;1.83;;;0.82;;
16824;SDS011;8529;48.108;-1.706;2022-10-03T17:38:52;1.00;;;0.90;;
16824;SDS011;8529;48.108;-1.706;2022-10-03T17:41:26;1.83;;;1.30;;
16824;SDS011;8529;48.108;-1.706;2022-10-03T17:44:10;1.20;;;1.10;;
16824;SDS011;8529;48.108;-1.706;2022-10-03T17:46:49;1.48;;;0.88;;
16824;SDS011;8529;48.108;-1.706;2022-10-03T17:49:26;1.48;;;1.00;;
16824;SDS011;8529;48.108;-1.706;2022-10-03T17:52:09;1.55;;;0.98;;
16824;SDS011;8529;48.108;-1.706;2022-10-03T17:54:39;1.55;;;1.00;;
16824;SDS011;8529;48.108;-1.706;2022-10-03T17:57:11;1.83;;;0.82;;
16824;SDS011;8529;48.108;-1.706;2022-10-03T17:59:42;3.08;;;0.93;;
16824;SDS011;8529;48.108;-1.706;2022-10-03T18:02:16;1.50;;;1.23;;
16824;SDS011;8529;48.108;-1.706;2022-10-03T18:04:46;1.00;;;0.90;;
16824;SDS011;8529;48.108;-1.706;2022-10-03T18:07:23;1.40;;;1.00;;
16824;SDS011;8529;48.108;-1.706;2022-10-03T18:09:53;1.65;;;1.00;;
16824;SDS011;8529;48.108;-1.706;2022-10-03T18:12:22;1.27;;;1.17;;
16824;SDS011;8529;48.108;-1.706;2022-10-03T18:15:05;1.77;;;1.30;;
16824;SDS011;8529;48.108;-1.706;2022-10-03T18:17:57;1.50;;;1.08;;
16824;SDS011;8529;48.108;-1.706;2022-10-03T18:20:39;2.40;;;1.50;;
16824;SDS011;8529;48.108;-1.706;2022-10-03T18:23:17;2.65;;;1.70;;
16824;SDS011;8529;48.108;-1.706;2022-10-03T18:25:51;2.20;;;2.00;;
16824;SDS011;8529;48.108;-1.706;2022-10-03T18:28:26;3.22;;;2.35;;
16824;SDS011;8529;48.108;-1.706;2022-10-03T18:30:57;4.63;;;2.33;;
16824;SDS011;8529;48.108;-1.706;2022-10-03T18:33:31;5.57;;;2.45;;
16824;SDS011;8529;48.108;-1.706;2022-10-03T18:36:06;4.38;;;2.83;;
16824;SDS011;8529;48.108;-1.706;2022-10-03T18:38:36;3.25;;;2.53;;
16824;SDS011;8529;48.108;-1.706;2022-10-03T18:41:05;4.88;;;2.83;;
16824;SDS011;8529;48.108;-1.706;2022-10-03T18:43:33;4.13;;;2.90;;
16824;SDS011;8529;48.108;-1.706;2022-10-03T18:46:13;5.18;;;3.10;;
16824;SDS011;8529;48.108;-1.706;2022-10-03T18:48:57;4.68;;;2.95;;
16824;SDS011;8529;48.108;-1.706;2022-10-03T18:51:31;5.70;;;3.47;;
16824;SDS011;8529;48.108;-1.706;2022-10-03T18:54:02;5.20;;;3.33;;
16824;SDS011;8529;48.108;-1.706;2022-10-03T18:56:33;5.30;;;3.83;;
16824;SDS011;8529;48.108;-1.706;2022-10-03T18:59:10;5.65;;;3.90;;
16824;SDS011;8529;48.108;-1.706;2022-10-03T19:01:43;5.50;;;4.28;;
16824;SDS011;8529;48.108;-1.706;2022-10-03T19:04:18;6.28;;;4.40;;
16824;SDS011;8529;48.108;-1.706;2022-10-03T19:06:58;6.80;;;3.88;;